Terminal Aerodrome Forecast
Issued by NWS Cleveland, OH

Home | Current Version | Previous Version | Text Only | Print | Product List | Glossary Off
Versions: 1 2 3 4 5 6 7 8 9 10 11 12 13 14 15 16 17 18 19 20 21 22 23 24 25 26

000
FTUS41 KCLE 011337 AAA
TAFCAK
TAF AMD
KCAK 011337Z 0114/0212 25004KT 4SM HZ SKC
     FM011500 26007KT P6SM SCT045
     FM011800 27005KT P6SM BKN045
     FM012200 VRB03KT P6SM BKN250
     FM020200 00000KT 4SM BR BKN250=

USA.gov is the U.S. government's official web portal to all federal, state and local government web resources and services.